Airfield :
LOGIN :

Register | Disclaimer

   EN    FR    IT 

 










Legend :    VFR   Marginal VFR   IFR   Intensive IFR   Very Intensive IFR
Visi :
Ceiling :
>= 8 km
>= 3000ft
5 to 8 km
1000 to 3000 ft
1500m to 5 km
500 to 1000 ft
800 to 1500m
200 to 500 ft
< 800m
< 200 ft
Symbols :   Thunderstorms  Fog  Heavy snow  Heavy precipitations  Wind > 20 kt
SIGMETs :     Misc.  Thunderstorms  Icing  Turbulence  Mountain Waves  Volcanic Ashes






- Airport Elevation : 584 ft


LFPV - Villacoublay Vélizy

CURRENT METAR :
  • 232330Z AUTO 02006KT 4100 BR BKN003 OVC210 00/00 Q1024 TEMPO 0500 FG VV///

EXPIRED METARs :
  • 232300Z AUTO 01006KT 4900 BR FEW003 OVC200 00/M00 Q1024 TEMPO 0500 FG VV///
  • 232230Z AUTO 04004KT 6000 NSC M00/M01 Q1024 TEMPO 0500 FG VV///
  • 232200Z AUTO 04004KT 6000 NSC M00/M01 Q1024 BECMG 3000 BR BKN002
  • 232130Z AUTO 04005KT 6000 SCT007 00/M01 Q1025 BECMG 3000 BR BKN002
  • 232100Z AUTO 04005KT 7000 FEW008 M00/M01 Q1025 BECMG 3000 BR BKN002

TAF TAF LFPV
Valid from the 23 at 21:00 until the 24 at 21:00 UTC


232000Z 2321/2421 05006KT 6000 SCT005
BECMG 2322/2324 3000 BR BKN002
PROB30 2400/2405 0500 FG VV///
BECMG 2406/2408 BKN005
TEMPO 2412/2416 SCT015



MET'MAP, your aeronautical weather chart ! - Copyright ORBIFLY December 2007 - Disclaimer

ORBIFLY MET'MAP TEAM :

Programming & Development : Alexandra Zaïnal
Concept & original design : Baudouin d'Aumeries
Assistance for programming : Marc-Olivier Méhu
Technical & hardware support : Manuel Goepfert

Contact : metmap@orbifly.com




SOURCES & CREDITS :

   NOAA